FNGI

Ngjiva Pereira Airport

Ngiva, Angola
METAR FNGI 161400Z 12004KT 9999 FEW018 FEW021CB BKN100 29/16 Q1015
Observed Flight Rules
Dec-16 @ 14:00 UTC (12 hours ago) Visual Flight Rules
Wind Visibility Clouds
120° at 4 knots 10,000+ meters
  • Few at 1,800' AGL
  • Few at 2,100' AGL
  • Broken at 10,000' AGL
Temperatures Readings
Current 29°C / 84°F
Dewpoint 16°C / 61°F
Humidity 45%
Altimeter 29.97" Hg
Pressure 1015 hPa
Elevation 1087
METAR FNGI 161400Z 12004KT 9999 FEW018 FEW021CB BKN100 29/16 Q1015
Observed Flight Rules
Dec-16 @ 14:00 UTC
(12 hours ago)
VFR
Wind Visibility
120° at 4 knots 10,000+ meters
Clouds
  • Few at 1,800' AGL
  • Few at 2,100' AGL
  • Broken at 10,000' AGL
Temperature Dewpoint
29°C / 84°F 16°C / 61°F
Humidity Altimeter Pressure
45% 29.97" Hg 1015 hPa